Terminal Aerodrome Forecast
Issued by NWS Newport/Morehead City, NC

Home | Current Version | Previous Version | Text Only | Print | Product List | Glossary On
Versions: 1 2 3 4 5 6 7 8 9 10 11 12 13 14 15 16 17 18 19 20 21
000
FTUS42 KMHX 242358 CCA
TAFEWN
TAF COR
KEWN 242358Z 2500/2524 09013KT 4SM SHRA BKN007 OVC015
      TEMPO 2500/2504 2SM +RA BKN005
     FM250700 08010G19KT 5SM SHRA SCT007 BKN015
     FM251500 22007KT 5SM -SHRA BKN015
     FM251800 28008KT P6SM VCSH BKN035=

USA.gov is the U.S. government's official web portal to all federal, state and local government web resources and services.